Time;durP1;ratioP1;P1;durP2;ratioP2;P2;SDS_P1;SDS_P2;PMS_P1;PMS_P2;Temp;Humidity;BMP_temperature;BMP_pressure;BME280_temperature;BME280_humidity;BME280_pressure;Samples;Min_cycle;Max_cycle;Signal;HPM_P1;HPM_P2
2023/05/29 00:00:31;;;;;;;16.07;7.27;;;17.30;99.90;;;;;;5071302;28;20197;-75
2023/05/29 00:02:57;;;;;;;13.87;6.87;;;17.30;99.90;;;;;;5072552;28;20232;-75
2023/05/29 00:05:25;;;;;;;12.67;7.00;;;17.10;99.90;;;;;;5072256;28;20245;-74
2023/05/29 00:07:53;;;;;;;13.87;6.80;;;16.90;99.90;;;;;;5070951;28;20175;-74
2023/05/29 00:10:19;;;;;;;16.20;6.97;;;16.80;99.90;;;;;;5072451;28;20168;-75
2023/05/29 00:12:47;;;;;;;13.03;6.67;;;16.90;99.90;;;;;;5075498;28;20157;-75
2023/05/29 00:15:13;;;;;;;15.93;7.23;;;16.90;99.90;;;;;;5076647;28;20629;-75
2023/05/29 00:17:43;;;;;;;14.87;6.93;;;17.00;99.90;;;;;;5076327;28;20171;-75
2023/05/29 00:20:11;;;;;;;14.03;6.87;;;16.90;99.90;;;;;;5076045;28;20277;-75
2023/05/29 00:22:42;;;;;;;13.40;7.97;;;16.80;99.90;;;;;;5076058;28;20186;-75
2023/05/29 00:25:09;;;;;;;12.37;6.90;;;16.70;99.90;;;;;;5076309;28;20177;-75
2023/05/29 00:27:37;;;;;;;13.27;6.77;;;16.80;99.90;;;;;;5076197;28;20188;-74
2023/05/29 00:30:06;;;;;;;15.13;7.00;;;16.80;99.90;;;;;;5076107;28;20157;-74
2023/05/29 00:32:37;;;;;;;9.10;6.70;;;16.70;99.90;;;;;;5075809;28;20153;-74
2023/05/29 00:35:05;;;;;;;12.30;6.60;;;16.60;99.90;;;;;;5076001;28;20164;-75
2023/05/29 00:37:33;;;;;;;12.50;6.87;;;16.60;99.90;;;;;;5075748;28;20164;-75
2023/05/29 00:40:06;;;;;;;13.90;7.47;;;16.40;99.90;;;;;;5076048;28;20184;-75
2023/05/29 00:42:31;;;;;;;13.73;7.03;;;16.20;99.90;;;;;;5075795;28;20165;-74
2023/05/29 00:44:59;;;;;;;15.20;7.23;;;16.40;99.90;;;;;;5075993;28;20155;-74
2023/05/29 00:47:26;;;;;;;14.73;7.03;;;16.40;99.90;;;;;;5075588;28;20233;-74
2023/05/29 00:49:58;;;;;;;14.53;7.57;;;16.20;99.90;;;;;;5075673;28;20165;-74
2023/05/29 00:52:29;;;;;;;15.30;7.37;;;16.10;99.90;;;;;;5075739;28;20168;-75
2023/05/29 00:54:56;;;;;;;12.90;7.37;;;16.10;99.90;;;;;;5075844;28;20160;-74
2023/05/29 00:57:22;;;;;;;9.73;6.37;;;16.10;99.90;;;;;;5075515;28;20156;-75
2023/05/29 00:59:58;;;;;;;14.57;7.23;;;16.10;99.90;;;;;;5075973;28;20238;-74
2023/05/29 01:02:24;;;;;;;16.17;7.60;;;16.20;99.90;;;;;;5075634;28;20653;-74
2023/05/29 01:04:54;;;;;;;11.83;7.20;;;16.10;99.90;;;;;;5074134;28;20224;-74
2023/05/29 01:07:20;;;;;;;12.63;7.10;;;16.00;99.90;;;;;;5075703;28;20200;-75
2023/05/29 01:09:49;;;;;;;14.03;7.07;;;15.90;99.90;;;;;;5075267;28;20640;-74
2023/05/29 01:12:40;;;;;;;12.93;6.80;;;15.80;99.90;;;;;;5075701;28;20632;-75
2023/05/29 01:15:19;;;;;;;13.30;6.20;;;15.70;99.90;;;;;;5075349;28;20651;-74
2023/05/29 01:18:11;;;;;;;13.30;7.20;;;15.50;99.90;;;;;;5074986;28;20185;-75
2023/05/29 01:20:56;;;;;;;13.97;7.10;;;15.50;99.90;;;;;;5075360;28;20187;-74
2023/05/29 01:23:50;;;;;;;12.13;6.87;;;15.50;99.90;;;;;;5074004;28;20585;-74
2023/05/29 01:26:22;;;;;;;10.73;6.67;;;15.30;99.90;;;;;;5074933;28;20160;-74
2023/05/29 01:28:53;;;;;;;11.00;6.03;;;15.30;99.90;;;;;;5073318;28;20183;-76
2023/05/29 01:31:24;;;;;;;10.27;6.63;;;15.30;99.90;;;;;;5074602;28;20627;-72
2023/05/29 01:33:58;;;;;;;10.77;6.63;;;15.40;99.90;;;;;;5074806;28;20226;-72
2023/05/29 01:36:26;;;;;;;12.37;6.57;;;15.50;99.90;;;;;;5073623;28;20484;-72
2023/05/29 01:38:54;;;;;;;12.10;7.00;;;15.40;99.90;;;;;;5074435;28;20151;-72
2023/05/29 01:41:21;;;;;;;11.13;6.40;;;15.50;99.90;;;;;;5074439;28;20198;-72
2023/05/29 01:43:48;;;;;;;10.20;6.53;;;15.30;99.90;;;;;;5074523;28;20178;-72
2023/05/29 01:46:15;;;;;;;12.43;7.40;;;15.30;99.90;;;;;;5072855;28;20174;-72
2023/05/29 01:48:45;;;;;;;12.90;6.63;;;15.20;99.90;;;;;;5074394;28;20205;-72
2023/05/29 01:51:12;;;;;;;14.60;7.27;;;15.20;99.90;;;;;;5074479;28;20162;-72
2023/05/29 01:53:41;;;;;;;10.10;6.63;;;15.20;99.90;;;;;;5073220;28;20613;-73
2023/05/29 01:56:09;;;;;;;15.00;6.60;;;15.20;99.90;;;;;;5074687;28;20179;-72
2023/05/29 01:58:35;;;;;;;13.40;7.30;;;15.10;99.90;;;;;;5073197;28;20175;-73
2023/05/29 02:01:06;;;;;;;14.97;6.53;;;15.10;99.90;;;;;;5074060;28;20206;-72
2023/05/29 02:03:32;;;;;;;14.93;7.53;;;15.20;99.90;;;;;;5074216;28;20172;-73
2023/05/29 02:06:00;;;;;;;12.60;6.90;;;15.20;99.90;;;;;;5074339;28;20574;-72
2023/05/29 02:08:26;;;;;;;12.50;6.37;;;15.20;99.90;;;;;;5072950;28;20167;-75
2023/05/29 02:10:52;;;;;;;10.43;6.47;;;15.00;99.90;;;;;;5074259;28;20605;-73
2023/05/29 02:13:18;;;;;;;13.03;6.63;;;15.00;99.90;;;;;;5074319;28;20262;-73
2023/05/29 02:15:44;;;;;;;12.70;6.20;;;15.10;99.90;;;;;;5073727;28;20183;-73
2023/05/29 02:18:14;;;;;;;9.77;6.40;;;14.90;99.90;;;;;;5074043;28;20635;-72
2023/05/29 02:20:40;;;;;;;9.47;6.00;;;14.90;99.90;;;;;;5073630;28;20183;-73
2023/05/29 02:23:09;;;;;;;14.47;6.63;;;14.70;99.90;;;;;;5073769;28;20624;-72
2023/05/29 02:25:35;;;;;;;12.03;5.80;;;14.70;99.90;;;;;;5073669;28;20632;-73
2023/05/29 02:28:01;;;;;;;12.40;5.70;;;14.80;99.90;;;;;;5072337;28;20182;-73
2023/05/29 02:30:28;;;;;;;13.67;5.93;;;14.80;99.90;;;;;;5073397;28;20156;-73
2023/05/29 02:32:54;;;;;;;15.63;6.10;;;14.90;99.90;;;;;;5073841;28;20167;-73
2023/05/29 02:35:22;;;;;;;14.13;5.40;;;14.80;99.90;;;;;;5073396;28;20240;-73
2023/05/29 02:37:51;;;;;;;12.50;5.23;;;14.60;99.90;;;;;;5072239;28;20173;-73
2023/05/29 02:40:17;;;;;;;12.17;4.67;;;14.60;99.90;;;;;;5073391;28;20285;-72
2023/05/29 02:42:44;;;;;;;16.37;4.93;;;14.70;99.90;;;;;;5073292;28;20154;-73
2023/05/29 02:45:10;;;;;;;12.73;5.07;;;14.70;99.90;;;;;;5073317;28;20193;-72
2023/05/29 02:47:36;;;;;;;13.77;4.37;;;14.70;99.90;;;;;;5073356;28;20163;-73
2023/05/29 02:50:02;;;;;;;8.97;4.40;;;14.50;99.90;;;;;;5073318;28;20620;-73
2023/05/29 02:52:28;;;;;;;14.17;5.03;;;14.40;99.90;;;;;;5073436;28;20209;-73
2023/05/29 02:54:58;;;;;;;11.30;4.60;;;14.20;99.90;;;;;;5073177;28;20167;-73
2023/05/29 02:57:24;;;;;;;10.17;3.87;;;14.20;99.90;;;;;;5071586;28;20170;-73
2023/05/29 02:59:51;;;;;;;13.57;4.60;;;14.20;99.90;;;;;;5073125;28;20209;-73
2023/05/29 03:02:17;;;;;;;17.30;4.30;;;14.10;99.90;;;;;;5072996;28;20163;-73
2023/05/29 03:04:44;;;;;;;11.63;4.03;;;14.10;99.90;;;;;;5071982;28;20159;-73
2023/05/29 03:07:09;;;;;;;13.57;5.07;;;14.00;99.90;;;;;;5072908;28;20260;-73
2023/05/29 03:09:35;;;;;;;9.00;3.50;;;13.90;99.90;;;;;;5071664;28;20207;-73
2023/05/29 03:12:03;;;;;;;10.53;4.13;;;13.80;99.90;;;;;;5072763;28;20174;-73
2023/05/29 03:14:35;;;;;;;9.70;3.60;;;13.90;99.90;;;;;;5073059;28;20174;-76
2023/05/29 03:17:05;;;;;;;10.23;4.03;;;13.70;99.90;;;;;;5071674;28;20166;-77
2023/05/29 03:19:34;;;;;;;10.93;3.67;;;13.80;99.90;;;;;;5071608;28;20631;-77
2023/05/29 03:22:11;;;;;;;12.30;4.27;;;13.80;99.90;;;;;;5072751;28;20506;-76
2023/05/29 03:24:39;;;;;;;11.97;4.17;;;13.80;99.90;;;;;;5073137;28;20168;-76
2023/05/29 03:27:05;;;;;;;10.27;3.60;;;13.70;99.90;;;;;;5072370;28;20558;-75
2023/05/29 03:29:32;;;;;;;14.20;3.77;;;13.60;99.90;;;;;;5072635;28;20216;-77
2023/05/29 03:32:04;;;;;;;10.20;3.67;;;13.50;99.90;;;;;;5072930;28;20159;-77
2023/05/29 03:34:30;;;;;;;11.17;3.63;;;13.50;99.90;;;;;;5072896;28;20175;-77
2023/05/29 03:37:02;;;;;;;10.37;3.20;;;13.40;99.90;;;;;;5072473;28;20648;-75
2023/05/29 03:39:29;;;;;;;12.23;3.70;;;13.40;99.90;;;;;;5073205;28;20190;-75
2023/05/29 03:41:55;;;;;;;12.53;3.67;;;13.50;99.90;;;;;;5072932;28;20177;-77
2023/05/29 03:44:23;;;;;;;9.97;3.13;;;13.40;99.90;;;;;;5072024;28;20188;-77
2023/05/29 03:46:51;;;;;;;8.30;3.07;;;13.40;99.90;;;;;;5076303;28;20155;-76
2023/05/29 03:49:18;;;;;;;10.17;3.20;;;13.30;99.90;;;;;;5079492;28;20167;-77
2023/05/29 03:51:45;;;;;;;12.67;4.43;;;13.30;99.90;;;;;;5079769;28;20390;-77
2023/05/29 03:54:17;;;;;;;10.63;3.17;;;13.30;99.90;;;;;;5079598;28;20170;-77
2023/05/29 03:56:42;;;;;;;8.83;3.00;;;13.20;99.90;;;;;;5079611;28;20253;-76
2023/05/29 03:59:11;;;;;;;10.73;3.50;;;13.00;99.90;;;;;;5079486;28;20669;-77
2023/05/29 04:01:38;;;;;;;10.40;3.40;;;13.10;99.90;;;;;;5079439;28;20182;-76
2023/05/29 04:04:05;;;;;;;13.60;3.40;;;13.10;99.90;;;;;;5078121;28;20173;-76
2023/05/29 04:06:32;;;;;;;9.87;2.93;;;13.00;99.90;;;;;;5078042;28;20174;-77
2023/05/29 04:08:57;;;;;;;6.70;3.10;;;13.10;99.90;;;;;;5077915;28;20164;-77
2023/05/29 04:11:27;;;;;;;9.27;2.80;;;13.00;99.90;;;;;;5079698;28;20204;-77
2023/05/29 04:13:55;;;;;;;14.40;3.70;;;13.10;99.90;;;;;;5079093;28;20164;-77
2023/05/29 04:16:23;;;;;;;10.00;3.10;;;13.10;99.90;;;;;;5079537;28;20157;-75
2023/05/29 04:18:49;;;;;;;14.70;3.20;;;13.20;99.90;;;;;;5077829;28;20178;-77
2023/05/29 04:21:17;;;;;;;13.90;3.10;;;13.20;99.90;;;;;;5077643;28;20688;-76
2023/05/29 04:23:48;;;;;;;9.17;2.57;;;13.10;99.90;;;;;;5077606;28;20155;-76
2023/05/29 04:26:14;;;;;;;17.20;2.93;;;13.10;99.90;;;;;;5077776;28;20536;-76
2023/05/29 04:28:40;;;;;;;4.50;2.50;;;13.10;99.90;;;;;;5078713;28;20232;-76
2023/05/29 04:31:14;;;;;;;10.27;3.50;;;13.20;99.90;;;;;;5077491;28;20175;-76
2023/05/29 04:33:40;;;;;;;11.77;3.00;;;13.20;99.90;;;;;;5079045;28;20150;-76
2023/05/29 04:36:13;;;;;;;6.67;2.50;;;13.20;99.90;;;;;;5078698;28;20244;-76
2023/05/29 04:38:51;;;;;;;13.57;3.13;;;13.20;99.90;;;;;;5078008;28;20228;-76
2023/05/29 04:41:17;;;;;;;10.67;2.77;;;13.20;99.90;;;;;;5078915;28;20546;-75
2023/05/29 04:43:43;;;;;;;7.67;2.53;;;13.10;99.90;;;;;;5078656;28;20646;-75
2023/05/29 04:46:12;;;;;;;11.03;2.80;;;13.10;99.90;;;;;;5077450;28;20205;-76
2023/05/29 04:48:42;;;;;;;10.27;2.73;;;13.10;99.90;;;;;;5079192;28;20185;-76
2023/05/29 04:51:10;;;;;;;11.13;2.70;;;13.10;99.90;;;;;;5078554;28;20224;-75
2023/05/29 04:53:39;;;;;;;7.23;2.60;;;13.20;99.90;;;;;;5077760;28;20167;-75
2023/05/29 04:56:05;;;;;;;13.03;3.27;;;13.20;99.90;;;;;;5078434;28;20612;-75
2023/05/29 04:58:33;;;;;;;10.77;2.97;;;13.20;99.90;;;;;;5075293;28;20170;-75
2023/05/29 05:01:07;;;;;;;14.63;3.30;;;13.10;99.90;;;;;;5075615;28;20273;-74
2023/05/29 05:03:34;;;;;;;11.40;2.93;;;13.10;99.90;;;;;;5075327;28;20522;-74
2023/05/29 05:06:04;;;;;;;12.97;2.90;;;13.10;99.90;;;;;;5075138;28;20178;-74
2023/05/29 05:08:34;;;;;;;8.90;2.83;;;13.20;99.90;;;;;;5075026;28;20516;-74
2023/05/29 05:11:01;;;;;;;8.27;2.70;;;13.30;99.90;;;;;;5075362;28;20162;-74
2023/05/29 05:13:28;;;;;;;9.77;3.13;;;13.20;99.90;;;;;;5075487;28;20169;-75
2023/05/29 05:16:00;;;;;;;11.73;2.77;;;13.20;99.90;;;;;;5075077;28;20209;-74
2023/05/29 05:18:26;;;;;;;8.93;3.30;;;13.00;99.90;;;;;;5074978;28;20165;-74
2023/05/29 05:20:58;;;;;;;9.67;2.87;;;13.10;99.90;;;;;;5074872;28;20194;-73
2023/05/29 05:23:40;;;;;;;9.47;2.40;;;13.20;99.90;;;;;;5074695;28;20640;-74
2023/05/29 05:26:12;;;;;;;13.27;3.50;;;13.40;99.90;;;;;;5074844;28;20170;-75
2023/05/29 05:28:39;;;;;;;10.40;3.00;;;13.20;99.90;;;;;;5073733;28;20594;-75
2023/05/29 05:31:08;;;;;;;10.03;2.80;;;13.20;99.90;;;;;;5075283;28;20624;-75
2023/05/29 05:33:36;;;;;;;15.30;3.20;;;13.20;99.90;;;;;;5075192;28;20158;-75
2023/05/29 05:36:04;;;;;;;10.33;3.10;;;13.30;99.90;;;;;;5074783;28;20158;-75
2023/05/29 05:38:32;;;;;;;10.70;2.60;;;13.30;99.90;;;;;;5074782;28;20185;-75
2023/05/29 05:40:58;;;;;;;12.00;2.80;;;13.40;99.90;;;;;;5074308;28;20239;-74
2023/05/29 05:43:26;;;;;;;12.90;2.97;;;13.40;99.90;;;;;;5073186;28;20637;-74
2023/05/29 05:45:53;;;;;;;16.70;3.47;;;13.40;99.90;;;;;;5074511;28;20166;-74
2023/05/29 05:48:19;;;;;;;12.73;3.40;;;13.40;99.90;;;;;;5074485;28;20167;-75
2023/05/29 05:50:45;;;;;;;11.53;2.60;;;13.20;99.90;;;;;;5074402;28;20709;-74
2023/05/29 05:53:11;;;;;;;15.23;3.07;;;13.30;99.90;;;;;;5073043;28;20168;-76
2023/05/29 05:55:39;;;;;;;11.00;2.90;;;13.30;99.90;;;;;;5075553;28;20158;-75
2023/05/29 05:58:05;;;;;;;11.27;3.40;;;13.30;99.90;;;;;;5073554;28;20178;-77
2023/05/29 06:00:32;;;;;;;14.73;2.97;;;13.30;99.90;;;;;;5073798;28;20201;-76
2023/05/29 06:03:00;;;;;;;11.77;2.73;;;13.30;99.90;;;;;;5074597;28;20160;-77
2023/05/29 06:05:26;;;;;;;8.73;2.53;;;13.30;99.90;;;;;;5074351;28;20209;-73
2023/05/29 06:07:53;;;;;;;15.43;3.33;;;13.40;99.90;;;;;;5073977;28;20167;-77
2023/05/29 06:10:18;;;;;;;11.10;3.03;;;13.50;99.90;;;;;;5073824;28;20162;-73
2023/05/29 06:12:45;;;;;;;15.20;3.80;;;13.60;99.90;;;;;;5074250;28;20312;-73
2023/05/29 06:15:12;;;;;;;12.90;2.97;;;13.50;99.90;;;;;;5073831;28;20183;-73
2023/05/29 06:17:39;;;;;;;15.77;2.87;;;13.70;99.90;;;;;;5073799;28;20175;-73
2023/05/29 06:20:13;;;;;;;15.63;2.73;;;13.70;99.90;;;;;;5072488;28;20655;-72
2023/05/29 06:22:40;;;;;;;10.67;2.63;;;13.70;99.90;;;;;;5072090;28;20247;-73
2023/05/29 06:25:06;;;;;;;10.70;2.60;;;13.70;99.90;;;;;;5072359;28;20220;-73
2023/05/29 06:27:32;;;;;;;10.90;2.87;;;13.80;99.90;;;;;;5073498;28;20178;-72
2023/05/29 06:29:57;;;;;;;11.93;3.33;;;13.80;99.90;;;;;;5073392;28;20175;-72
2023/05/29 06:32:23;;;;;;;11.87;2.70;;;13.90;99.90;;;;;;5073571;28;20616;-71
2023/05/29 06:34:50;;;;;;;14.30;2.90;;;14.10;99.90;;;;;;5072039;28;20174;-73
2023/05/29 06:37:16;;;;;;;13.10;3.37;;;14.00;99.90;;;;;;5072144;28;20175;-73
2023/05/29 06:39:45;;;;;;;14.23;3.50;;;14.00;99.90;;;;;;5072133;28;20166;-71
2023/05/29 06:42:10;;;;;;;9.17;2.43;;;14.00;99.90;;;;;;5073529;28;20174;-73
2023/05/29 06:44:36;;;;;;;9.20;2.20;;;14.10;99.90;;;;;;5073647;28;20169;-74
2023/05/29 06:47:02;;;;;;;10.73;3.60;;;14.00;99.90;;;;;;5072038;28;20159;-75
2023/05/29 06:49:27;;;;;;;7.47;2.57;;;14.00;99.90;;;;;;5072142;28;20182;-74
2023/05/29 06:51:53;;;;;;;13.70;2.70;;;14.00;99.90;;;;;;5073231;28;20158;-74
2023/05/29 06:54:20;;;;;;;10.73;2.90;;;14.00;99.90;;;;;;5073302;28;20155;-74
2023/05/29 06:56:46;;;;;;;9.73;2.80;;;14.10;99.90;;;;;;5073178;28;20164;-74
2023/05/29 06:59:13;;;;;;;13.27;3.07;;;14.20;99.90;;;;;;5073189;28;20208;-74
2023/05/29 07:01:40;;;;;;;15.67;3.73;;;14.30;99.90;;;;;;5072985;28;20187;-74
2023/05/29 07:04:06;;;;;;;14.80;2.63;;;14.40;99.90;;;;;;5072778;28;20147;-74
2023/05/29 07:06:33;;;;;;;10.07;2.33;;;14.50;99.90;;;;;;5073072;28;20147;-74
2023/05/29 07:08:59;;;;;;;18.43;3.00;;;14.40;99.90;;;;;;5072898;28;20234;-74
2023/05/29 07:11:26;;;;;;;13.30;3.30;;;14.50;99.90;;;;;;5073012;28;20499;-74
2023/05/29 07:13:54;;;;;;;14.03;3.13;;;14.60;99.90;;;;;;5073077;28;20226;-77
2023/05/29 07:16:21;;;;;;;12.07;2.73;;;14.70;99.90;;;;;;5072771;28;20197;-74
2023/05/29 07:18:46;;;;;;;12.77;2.93;;;14.70;99.90;;;;;;5072515;28;20171;-74
2023/05/29 07:21:12;;;;;;;9.60;2.60;;;14.70;99.90;;;;;;5070966;28;20198;-74
2023/05/29 07:23:40;;;;;;;11.33;2.93;;;14.80;99.90;;;;;;5073338;28;20155;-74
2023/05/29 07:26:06;;;;;;;19.77;3.20;;;14.80;99.90;;;;;;5071675;28;20178;-74
2023/05/29 07:28:31;;;;;;;10.47;3.20;;;15.10;99.90;;;;;;5071803;28;20190;-74
2023/05/29 07:30:57;;;;;;;9.83;2.43;;;15.10;99.90;;;;;;5070700;28;20178;-73
2023/05/29 07:33:29;;;;;;;12.87;2.63;;;15.20;99.90;;;;;;5082025;28;20208;-75
2023/05/29 07:35:55;;;;;;;9.40;2.97;;;15.40;99.90;;;;;;5093083;28;20261;-74
2023/05/29 07:38:21;;;;;;;15.13;3.10;;;15.40;99.90;;;;;;5092324;28;20252;-74
2023/05/29 07:40:47;;;;;;;9.97;3.10;;;15.30;99.90;;;;;;5092753;28;20243;-74
2023/05/29 07:43:12;;;;;;;12.53;3.03;;;15.40;99.90;;;;;;5091147;28;20178;-74
2023/05/29 07:45:38;;;;;;;10.97;2.30;;;15.50;99.90;;;;;;5092841;28;20229;-74
2023/05/29 07:48:04;;;;;;;12.53;2.40;;;15.60;99.90;;;;;;5092391;28;20300;-73
2023/05/29 07:50:30;;;;;;;8.00;2.20;;;15.60;99.90;;;;;;5092971;28;20532;-74
2023/05/29 07:52:56;;;;;;;8.73;2.77;;;15.60;99.90;;;;;;5091195;28;20182;-74
2023/05/29 07:55:21;;;;;;;10.97;2.53;;;15.80;99.90;;;;;;5091457;28;20188;-74
2023/05/29 07:57:48;;;;;;;11.03;2.60;;;15.70;99.90;;;;;;5092511;28;20162;-74
2023/05/29 08:00:15;;;;;;;13.23;2.47;;;15.60;99.90;;;;;;5091390;28;20594;-73
2023/05/29 08:02:42;;;;;;;11.90;2.57;;;15.70;99.90;;;;;;5092696;28;20534;-74
2023/05/29 08:05:08;;;;;;;8.43;2.97;;;15.90;99.90;;;;;;5091156;28;20268;-74
2023/05/29 08:07:35;;;;;;;10.97;2.73;;;15.90;99.90;;;;;;5092560;28;20149;-74
2023/05/29 08:10:00;;;;;;;9.73;2.10;;;16.00;99.90;;;;;;5092713;28;20167;-74
2023/05/29 08:12:27;;;;;;;8.83;2.57;;;16.30;99.90;;;;;;5091387;28;20170;-74
2023/05/29 08:14:53;;;;;;;10.20;2.70;;;16.40;99.90;;;;;;5092752;28;20596;-75
2023/05/29 08:17:18;;;;;;;14.23;2.73;;;16.50;99.90;;;;;;5091080;28;20264;-74
2023/05/29 08:19:44;;;;;;;9.07;2.70;;;16.50;99.90;;;;;;5092454;28;20630;-75
2023/05/29 08:22:14;;;;;;;7.43;3.40;;;16.70;99.90;;;;;;5091250;28;20200;-76
2023/05/29 08:24:41;;;;;;;12.70;2.70;;;16.70;99.90;;;;;;5092652;28;20167;-74
2023/05/29 08:27:07;;;;;;;8.37;2.50;;;16.70;99.90;;;;;;5092264;28;20686;-74
2023/05/29 08:29:33;;;;;;;10.67;3.17;;;16.50;99.90;;;;;;5092081;28;20180;-73
2023/05/29 08:31:59;;;;;;;8.07;2.60;;;16.60;99.90;;;;;;5092665;28;20465;-75
2023/05/29 08:34:25;;;;;;;13.97;3.17;;;16.70;99.90;;;;;;5096389;28;20607;-74
2023/05/29 08:36:51;;;;;;;9.70;3.10;;;16.90;99.90;;;;;;5096317;28;20181;-74
2023/05/29 08:39:17;;;;;;;13.07;3.23;;;17.00;99.90;;;;;;5096329;28;20140;-75
2023/05/29 08:42:06;;;;;;;10.87;3.17;;;17.00;99.90;;;;;;5096419;28;20191;-73
2023/05/29 08:44:33;;;;;;;9.60;2.97;;;17.00;99.90;;;;;;5096218;28;20641;-74
2023/05/29 08:47:06;;;;;;;11.10;2.93;;;17.20;99.90;;;;;;5096063;28;20211;-75
2023/05/29 08:49:45;;;;;;;11.73;2.93;;;17.40;99.90;;;;;;5096206;28;20223;-75
2023/05/29 08:52:16;;;;;;;12.73;2.57;;;17.40;99.90;;;;;;5095182;28;20194;-75
2023/05/29 08:54:44;;;;;;;6.13;2.43;;;17.30;99.90;;;;;;5095955;28;20153;-75
2023/05/29 08:57:11;;;;;;;9.93;2.87;;;17.40;99.90;;;;;;5096238;28;20144;-74
2023/05/29 08:59:39;;;;;;;11.27;2.80;;;17.40;99.90;;;;;;5095758;28;20252;-73
2023/05/29 09:02:05;;;;;;;9.67;2.77;;;17.40;99.90;;;;;;5095814;28;20174;-74
2023/05/29 09:04:31;;;;;;;15.33;3.33;;;17.50;99.90;;;;;;5095729;28;20160;-74
2023/05/29 09:06:58;;;;;;;17.10;3.00;;;17.40;99.90;;;;;;5095673;28;20177;-74
2023/05/29 09:09:27;;;;;;;14.20;3.67;;;17.20;99.90;;;;;;5095702;28;20173;-74
2023/05/29 09:11:53;;;;;;;15.87;3.90;;;17.30;99.90;;;;;;5095648;28;20169;-75
2023/05/29 09:14:37;;;;;;;12.53;3.03;;;17.20;99.90;;;;;;5095296;28;20634;-74
2023/05/29 09:17:05;;;;;;;11.07;2.77;;;17.20;99.90;;;;;;5094093;28;20274;-74
2023/05/29 09:19:31;;;;;;;13.87;3.50;;;17.30;99.90;;;;;;5075893;28;20533;-73
2023/05/29 09:22:10;;;;;;;10.70;2.70;;;17.60;99.90;;;;;;5075220;28;20688;-74
2023/05/29 09:24:37;;;;;;;15.43;2.63;;;17.60;99.90;;;;;;5074826;28;20166;-74
2023/05/29 09:27:04;;;;;;;11.80;3.07;;;17.60;99.90;;;;;;5074984;28;20189;-73
2023/05/29 09:29:33;;;;;;;7.97;2.60;;;17.40;99.90;;;;;;5074829;28;20171;-73
2023/05/29 09:32:00;;;;;;;9.40;3.03;;;17.60;99.90;;;;;;5074945;28;20160;-74
2023/05/29 09:34:27;;;;;;;10.87;3.03;;;17.80;99.90;;;;;;5073238;28;20665;-73
2023/05/29 09:37:02;;;;;;;13.10;2.60;;;18.00;99.90;;;;;;5074622;28;20151;-74
2023/05/29 09:39:28;;;;;;;12.57;3.07;;;17.90;99.90;;;;;;5074770;28;20155;-73
2023/05/29 09:41:54;;;;;;;9.83;2.33;;;17.90;99.90;;;;;;5074829;28;20198;-74
2023/05/29 09:44:20;;;;;;;10.27;2.63;;;18.10;99.90;;;;;;5073660;28;20158;-74
2023/05/29 09:46:49;;;;;;;12.77;3.37;;;18.00;99.90;;;;;;5074879;28;20623;-74
2023/05/29 09:49:16;;;;;;;17.30;3.77;;;18.10;99.90;;;;;;5073076;28;20175;-74
2023/05/29 09:51:47;;;;;;;12.17;2.67;;;18.20;99.70;;;;;;5072983;28;20206;-74
2023/05/29 09:54:17;;;;;;;11.17;2.80;;;18.20;99.70;;;;;;5074701;28;20567;-73
2023/05/29 09:56:45;;;;;;;9.40;2.60;;;18.30;99.90;;;;;;5074560;28;20156;-73
2023/05/29 09:59:12;;;;;;;10.33;2.77;;;18.30;99.50;;;;;;5074138;28;20186;-73
2023/05/29 10:01:43;;;;;;;11.57;3.40;;;18.50;98.90;;;;;;5074327;28;20325;-74
2023/05/29 10:04:10;;;;;;;8.73;2.63;;;18.60;98.80;;;;;;5074266;28;20175;-73
2023/05/29 10:06:44;;;;;;;11.27;2.90;;;18.40;98.70;;;;;;5073002;28;20265;-74
2023/05/29 10:09:13;;;;;;;9.93;2.80;;;18.50;99.10;;;;;;5074371;28;20175;-74
2023/05/29 10:11:43;;;;;;;11.63;3.00;;;18.70;99.10;;;;;;5073962;28;20604;-72
2023/05/29 10:14:14;;;;;;;12.13;2.73;;;18.60;99.10;;;;;;5072586;28;20210;-72
2023/05/29 10:16:44;;;;;;;7.07;2.53;;;18.70;99.50;;;;;;5074034;28;20156;-72
2023/05/29 10:19:14;;;;;;;14.30;2.63;;;18.80;98.50;;;;;;5072961;28;20302;-73
2023/05/29 10:21:42;;;;;;;8.63;2.90;;;19.10;98.40;;;;;;5073880;28;20214;-72
2023/05/29 10:24:08;;;;;;;11.73;2.80;;;19.20;98.20;;;;;;5073878;28;20195;-72
2023/05/29 10:26:40;;;;;;;13.23;3.23;;;19.40;97.40;;;;;;5073968;28;20247;-72
2023/05/29 10:29:21;;;;;;;10.00;2.63;;;19.20;97.80;;;;;;5072365;28;20186;-73
2023/05/29 10:32:12;;;;;;;10.93;2.70;;;19.30;97.30;;;;;;5072669;28;20680;-72
2023/05/29 10:35:04;;;;;;;11.43;2.60;;;19.40;97.10;;;;;;5073816;28;20167;-73
2023/05/29 10:37:29;;;;;;;13.90;3.07;;;19.60;97.00;;;;;;5073808;28;20167;-72
2023/05/29 10:40:08;;;;;;;9.83;2.77;;;19.70;96.40;;;;;;5073479;28;20170;-72
2023/05/29 10:42:46;;;;;;;11.73;2.90;;;19.60;96.30;;;;;;5071948;28;20262;-71
2023/05/29 10:45:31;;;;;;;15.37;2.93;;;19.60;96.30;;;;;;5072156;28;20224;-72
2023/05/29 10:48:17;;;;;;;13.90;2.87;;;19.70;95.90;;;;;;5072385;28;20232;-72
2023/05/29 10:50:45;;;;;;;9.50;2.67;;;19.80;96.30;;;;;;5070698;28;20187;-73
2023/05/29 10:53:16;;;;;;;10.73;2.80;;;19.60;95.70;;;;;;5073289;28;20164;-71
2023/05/29 10:55:44;;;;;;;7.70;2.77;;;19.60;96.10;;;;;;5072472;28;20756;-73
2023/05/29 10:58:21;;;;;;;14.17;3.13;;;19.60;96.10;;;;;;5073014;28;20167;-73
2023/05/29 11:00:48;;;;;;;8.27;2.53;;;19.70;96.00;;;;;;5072823;28;20280;-73
2023/05/29 11:03:32;;;;;;;9.97;2.70;;;19.80;95.60;;;;;;5072986;28;20477;-72
2023/05/29 11:06:21;;;;;;;6.57;2.30;;;20.00;95.40;;;;;;5073251;28;20562;-72
2023/05/29 11:08:57;;;;;;;8.43;2.40;;;20.30;95.40;;;;;;5071361;28;20167;-71
2023/05/29 11:11:41;;;;;;;10.13;2.40;;;20.40;95.10;;;;;;5074324;28;20181;-71
2023/05/29 11:14:08;;;;;;;9.63;2.60;;;20.40;94.50;;;;;;5066630;28;20651;-71
2023/05/29 11:16:33;;;;;;;9.57;2.63;;;20.90;94.40;;;;;;5070999;28;20547;-72
2023/05/29 11:19:05;;;;;;;10.30;2.30;;;21.30;93.80;;;;;;5065126;28;20183;-71
2023/05/29 11:21:38;;;;;;;8.57;2.13;;;21.40;93.40;;;;;;5073810;28;20206;-71
2023/05/29 11:24:07;;;;;;;9.93;2.47;;;21.50;92.60;;;;;;5068028;28;20648;-71
2023/05/29 11:26:36;;;;;;;7.93;2.60;;;21.40;93.00;;;;;;5079682;28;20186;-71
2023/05/29 11:29:06;;;;;;;10.83;2.20;;;21.60;93.30;;;;;;5075379;28;20832;-71
2023/05/29 11:31:34;;;;;;;7.93;2.50;;;22.20;92.40;;;;;;5072203;28;20167;-72
2023/05/29 11:34:04;;;;;;;15.60;2.53;;;22.40;91.70;;;;;;5076423;28;20171;-72
2023/05/29 11:36:31;;;;;;;10.40;2.40;;;22.60;91.50;;;;;;5074124;28;20501;-74
2023/05/29 11:38:57;;;;;;;7.43;2.67;;;22.70;91.20;;;;;;5075507;28;20175;-73
2023/05/29 11:41:22;;;;;;;8.20;2.40;;;22.90;90.90;;;;;;5071949;28;20191;-73
2023/05/29 11:44:06;;;;;;;10.73;2.27;;;23.10;90.20;;;;;;5072993;28;20592;-73
2023/05/29 11:46:32;;;;;;;9.37;2.50;;;23.40;90.30;;;;;;5072301;28;20245;-73
2023/05/29 11:48:59;;;;;;;8.10;2.40;;;23.90;89.40;;;;;;5063708;28;20177;-73
2023/05/29 11:51:25;;;;;;;6.33;2.20;;;23.80;88.10;;;;;;5073701;28;20842;-73
2023/05/29 11:53:57;;;;;;;6.67;2.23;;;23.80;88.90;;;;;;5072343;28;20632;-72
2023/05/29 11:56:29;;;;;;;9.20;2.33;;;23.90;88.90;;;;;;5072473;28;20552;-73
2023/05/29 11:58:59;;;;;;;9.83;2.50;;;24.10;88.50;;;;;;5072163;28;20186;-72
2023/05/29 12:01:26;;;;;;;9.67;2.50;;;24.40;86.60;;;;;;5072668;28;20684;-73
2023/05/29 12:03:52;;;;;;;7.57;1.93;;;24.20;86.40;;;;;;5072203;28;20175;-73
2023/05/29 12:06:38;;;;;;;6.77;2.10;;;24.30;86.30;;;;;;5071246;28;20179;-73
2023/05/29 12:09:04;;;;;;;8.43;2.30;;;24.30;86.00;;;;;;5075730;28;20206;-72
2023/05/29 12:11:31;;;;;;;7.70;2.47;;;24.30;85.90;;;;;;5076523;28;20195;-73
2023/05/29 12:13:59;;;;;;;8.40;2.87;;;24.40;84.80;;;;;;5073161;28;20190;-73
2023/05/29 12:16:29;;;;;;;9.37;2.20;;;24.70;84.60;;;;;;5069402;28;20179;-73
2023/05/29 12:18:56;;;;;;;6.17;2.20;;;24.90;84.00;;;;;;5072789;28;20179;-73
2023/05/29 12:21:24;;;;;;;8.30;2.30;;;25.90;82.90;;;;;;5075196;28;20911;-73
2023/05/29 12:23:52;;;;;;;7.00;2.50;;;25.60;81.40;;;;;;5076774;28;20160;-73
2023/05/29 12:26:20;;;;;;;9.47;2.70;;;25.30;81.20;;;;;;5074571;28;20694;-73
2023/05/29 12:28:46;;;;;;;8.80;2.70;;;24.90;81.80;;;;;;5070875;28;20202;-73
2023/05/29 12:31:11;;;;;;;7.80;2.10;;;24.80;82.90;;;;;;5080623;28;20179;-73
2023/05/29 12:33:43;;;;;;;5.73;2.10;;;24.70;81.50;;;;;;5074646;28;20628;-73
2023/05/29 12:36:12;;;;;;;7.00;2.50;;;25.00;81.70;;;;;;5085484;28;20181;-72
2023/05/29 12:38:51;;;;;;;9.43;2.50;;;26.00;79.50;;;;;;5078167;28;20224;-72
2023/05/29 12:41:29;;;;;;;6.93;2.43;;;26.10;79.10;;;;;;5075462;28;20209;-72
2023/05/29 12:43:56;;;;;;;9.03;2.67;;;26.10;78.60;;;;;;5072075;28;20178;-73
2023/05/29 12:46:26;;;;;;;7.07;2.30;;;25.80;77.50;;;;;;5074733;28;20178;-73
2023/05/29 12:48:56;;;;;;;5.23;2.00;;;25.90;78.20;;;;;;5075166;28;20183;-72